San Antonio, Valles Caldera, New Mexico Weather observations

Data are for 10 minute period ending at time listed.
 Day   Time   Solar   Ave.   Ave.  Ave.  Vector  Max.   Baro.   Total    
  of    of     Rad.   Air    Rel.  Wind   Wind   Wind  Press.  Precip.   
Year   Day            Temp.  Hum.  Speed  Dir.   Gust                    
2014   (MST)  Kw/m2    F      %     mph   deg.    mph    mb.     in.     
-------------------------------------------------------------------------
 297    2:20   0.00   26.3    90    0.4   205     2.4   396.9    0.00 
 297    2:30   0.00   26.0    90    1.2   108     3.6   396.9    0.00 
 297    2:40   0.00   26.2    91    0.2   330     2.4   397.2    0.00 
 297    2:50   0.00   25.8    91    0.2    30     2.4   397.2    0.00 
 297    3:00   0.00   25.5    92    1.4   111     3.0   397.2    0.00 
 297    3:10   0.00   25.9    92    0.6    43     2.4   397.2    0.00 
 297    3:20   0.00   26.3    92    0.9    40     3.6   397.2    0.00 
 297    3:30   0.00   26.5    90    0.2   302     1.8   397.2    0.00 
 297    3:40   0.00   25.9    90    0.5   265     2.4   396.9    0.00 
 297    3:50   0.00   25.4    91    0.2    48     2.4   397.2    0.00 
 297    4:00   0.00   25.3    92    0.3    89     1.8   397.2    0.00 
 297    4:10   0.00   25.1    92    0.4    19     1.8   397.2    0.00 
 297    4:20   0.00   24.8    92    0.5   101     1.8   397.2    0.00 
 297    4:30   0.00   24.6    92    0.3   232     1.8   397.2    0.00 
 297    4:40   0.00   23.9    93    1.0    67     2.4   397.2    0.00 
 297    4:50   0.00   24.8    94    0.0    26     1.2   397.6    0.00 
 297    5:00   0.00   23.8    91    1.6   131     2.4   397.2    0.00 
 297    5:10   0.00   22.9    93    0.0   153     1.2   397.2    0.00 
 297    5:20   0.00   23.5    94    0.2   300     1.8   397.6    0.00 
 297    5:30   0.00   23.2    93    0.8   294     1.8   397.6    0.00 
 297    5:40   0.00   22.9    94    0.5   188     1.8   397.2    0.00 
 297    5:50   0.00   23.8    94    0.8    53     2.4   397.6    0.00 
 297    6:00   0.00   23.9    94    0.3   234     1.8   397.2    0.00 
 297    6:10   0.00   23.3    93    0.7   294     2.4   397.2    0.00 
 297    6:20   0.00   23.0    93    0.7   327     2.4   397.2    0.00 
 297    6:30   0.01   22.8    93    0.6   124     2.4   397.2    0.00 
 297    6:40   0.01   22.8    93    0.2   111     1.2   397.2    0.00 
 297    6:50   0.01   22.7    93    0.5   355     2.4   397.2    0.00 
 297    7:00   0.01   22.9    93    0.3   130     1.8   397.2    0.00 
 297    7:10   0.04   23.8    94    0.6   125     1.8   397.6    0.00 
 297    7:20   0.14   29.2    91    0.0     0     0.0   397.6    0.00 
 297    7:30   0.17   33.8    76    0.7   139     2.4   396.2    0.00 
 297    7:40   0.21   33.7    72    1.0   146     2.4   395.5    0.00 
 297    7:50   0.25   36.0    70    0.3   183     1.8   395.9    0.00 
 297    8:00   0.28   37.2    70    0.4   186     2.4   395.9    0.00 
 297    8:10   0.31   39.9    67    0.7   252     1.8   395.9    0.00 
 297    8:20   0.34   39.3    68    1.4   254     2.4   395.9    0.00 
 297    8:30   0.37   39.8    70    1.7   262     3.0   396.2    0.00 
 297    8:40   0.40   43.0    67    1.1   263     2.4   396.2    0.00 
 297    8:50   0.42   44.5    65    1.6   245     3.0   396.2    0.00 
 297    9:00   0.45   46.8    60    1.7   153     3.6   396.5    0.00 
 297    9:10   0.47   49.5    57    1.7   163     3.6   396.5    0.00 
 297    9:20   0.50   52.1    49    2.9   161     4.8   396.5    0.00 
 297    9:30   0.53   54.5    42    2.5   178     4.2   396.5    0.00 
 297    9:40   0.55   56.9    37    2.0   224     4.2   396.5    0.00 
 297    9:50   0.57   60.0    31    1.7   257     3.6   396.9    0.00 
 297   10:00   0.59   62.3    23    3.4   264     8.4   396.9    0.00 
 297   10:10   0.61   64.0    15    6.5   288     9.0   396.9    0.00 
 297   10:20   0.63   65.7    13    7.7   303    13.1   396.9    0.00 
 297   10:30   0.64   65.8    13    7.1   310    14.9   397.2    0.00 
 297   10:40   0.66   66.3    13    7.3   296    16.1   397.2    0.00 
 297   10:50   0.67   66.3    14    7.2   293    13.7   397.2    0.00 
 297   11:00   0.68   66.5    16    6.8   294    13.1   397.2    0.00 
 297   11:10   0.69   67.1    17    6.0   288    15.5   397.6    0.00 
 297   11:20   0.69   67.2    17    5.2   288    10.8   397.6    0.00 
 297   11:30   0.70   67.3    16    6.9   310    12.5   397.6    0.00 
 297   11:40   0.70   67.9    16    6.1   298    11.3   397.6    0.00 
 297   11:50   0.70   68.2    16    6.3   316    10.8   397.6    0.00 
 297   12:00   0.70   68.5    16    5.4   296    13.7   397.6    0.00 
 297   12:10   0.70   68.8    15    6.2   313    11.9   397.9    0.00 
 297   12:20   0.70   69.3    15    5.5   323    12.5   397.9    0.00 
 297   12:30   0.69   69.5    14    6.9   313    14.3   397.9    0.00 
 297   12:40   0.69   69.9    14    6.6   296    12.5   397.9    0.00 
 297   12:50   0.68   70.9    13    6.0   303    13.1   397.9    0.00 
 297   13:00   0.67   71.2    13    6.7   306    13.7   397.9    0.00 
 297   13:10   0.66   71.1    13    7.6   290    13.7   397.9    0.00 
 297   13:20   0.65   71.6    13    6.8   306    11.9   398.2    0.00 
 297   13:30   0.63   71.0    13    6.6   319    12.5   398.2    0.00 
 297   13:40   0.61   71.7    14    6.7   293    10.8   398.2    0.00 
 297   13:50   0.59   70.8    14    6.8   339    13.1   398.2    0.00 
 297   14:00   0.57   71.6    13    5.8   322    11.9   398.2    0.00 
 297   14:10   0.55   72.5    13    7.5   291    14.3   398.2    0.00 
 297   14:20   0.53   72.1    14    7.3   310    17.3   398.6    0.00 
 297   14:30   0.51   71.8    14    5.8   336    12.5   398.2    0.00 
 297   14:40   0.48   72.3    14    6.8   313    13.7   398.6    0.00 
 297   14:50   0.45   72.4    14    8.5   294    16.7   398.2    0.00 
 297   15:00   0.43   72.4    14    5.4   322    11.9   398.2    0.00 
 297   15:10   0.40   72.9    14    6.8   318    12.5   398.6    0.00 
 297   15:20   0.37   73.1    14    6.2   313    11.3   398.2    0.00 
 297   15:30   0.34   72.6    14    6.6   315    11.3   398.2    0.00 
 297   15:40   0.31   72.5    14    6.5   302    12.5   398.2    0.00 
 297   15:50   0.28   71.5    15    6.9   321    11.9   398.2    0.00 
 297   16:00   0.24   71.4    15    6.0   312    11.9   398.2    0.00 
 297   16:10   0.21   71.3    14    5.6   323     9.6   398.2    0.00 
 297   16:20   0.18   70.8    14    5.8   322     9.6   397.9    0.00 
 297   16:30   0.15   70.5    14    6.0   317    10.8   397.9    0.00 
 297   16:40   0.12   69.4    15    6.5   317    11.9   397.6    0.00 
 297   16:50   0.08   68.2    15    6.4   317    11.9   397.6    0.00 
 297   17:00   0.05   67.5    16    4.8   308     9.6   397.6    0.00 
 297   17:10   0.02   66.3    16    4.6   326     8.4   397.2    0.00 
 297   17:20   0.01   62.9    18    4.1   327     7.8   396.9    0.00 
 297   17:30   0.00   60.3    20    3.8   318     7.2   396.5    0.00 
 297   17:40   0.00   57.8    23    2.8   283     4.8   396.5    0.00 
 297   17:50   0.00   54.7    26    3.0   300     4.2   396.2    0.00 
 297   18:00   0.00   52.8    28    2.0   320     4.2   395.9    0.00 
 297   18:10   0.00   52.6    28    4.0   303     6.6   395.9    0.00 
 297   18:20   0.00   51.4    30    2.3   161     5.4   395.9    0.00 
 297   18:30   0.00   48.1    34    1.7    30     4.2   395.5    0.00 
 297   18:40   0.00   48.4    34    1.3    78     2.4   395.5    0.00 
 297   18:50   0.00   47.3    35    1.8    15     3.6   395.5    0.00 
 297   19:00   0.00   46.7    36    0.6   328     1.8   395.2    0.00 
 297   19:10   0.00   45.6    37    1.3    30     3.6   395.5    0.00 
 297   19:20   0.00   44.9    39    1.5   322     2.4   395.2    0.00 
 297   19:30   0.00   42.8    44    2.5    67     4.2   395.2    0.00 
 297   19:40   0.00   42.9    41    2.2    59     4.8   395.2    0.00 
 297   19:50   0.00   42.5    43    0.9   319     3.6   395.2    0.00 
 297   20:00   0.00   40.7    46    1.1   305     2.4   395.2    0.00 
 297   20:10   0.00   40.1    47    0.9    79     3.0   394.9    0.00 
 297   20:20   0.00   39.8    44    1.4    14     3.6   394.9    0.00 
 297   20:30   0.00   39.4    42    1.8    36     3.6   394.9    0.00 
 297   20:40   0.00   38.3    48    1.0    45     3.0   394.9    0.00 
 297   20:50   0.00   38.4    44    1.6    17     3.6   394.9    0.00 
 297   21:00   0.00   36.6    51    0.8    10     2.4   394.9    0.00 
 297   21:10   0.00   35.2    54    0.8   279     3.0   394.9    0.00 
 297   21:20   0.00   35.0    52    0.9    26     2.4   394.9    0.00 
 297   21:30   0.00   35.3    52    1.8   100     3.6   394.5    0.00 
 297   21:40   0.00   35.4    53    0.9   324     3.0   394.9    0.00 
 297   21:50   0.00   34.5    54    0.2    88     1.8   394.9    0.00 
 297   22:00   0.00   33.9    55    1.2   261     2.4   394.9    0.00 
 297   22:10   0.00   31.7    62    1.3    86     2.4   394.9    0.00 
 297   22:20   0.00   32.1    58    0.4     5     1.8   394.5    0.00 
 297   22:30   0.00   31.9    59    1.1    88     3.0   394.9    0.00 
 297   22:40   0.00   32.4    56    0.7    39     3.0   394.9    0.00 
 297   22:50   0.00   31.6    58    0.1   117     1.2   394.5    0.00 
 297   23:00   0.00   30.6    62    0.8    92     2.4   394.5    0.00 
 297   23:10   0.00   30.4    60    0.0     0     0.0   394.9    0.00 
 297   23:20   0.00   29.6    62    0.2    24     2.4   394.5    0.00 
 297   23:30   0.00   29.2    63    0.4    27     2.4   394.9    0.00 
 297   23:40   0.00   29.2    60    0.6   107     3.0   394.5    0.00 
 297   23:50   0.00   28.8    64    0.3   113     2.4   394.5    0.00 
 298    0:00   0.00   28.1    66    1.0    26     3.0   394.9    0.00 
 298    0:10   0.00   27.8    63    0.9   338     2.4   394.5    0.00 
 298    0:20   0.00   27.1    67    0.3   300     1.8   394.5    0.00 
 298    0:30   0.00   27.1    68    0.7    66     2.4   394.9    0.00 
 298    0:40   0.00   27.9    62    1.4    48     3.0   394.5    0.00 
 298    0:50   0.00   27.1    68    0.5   132     1.8   394.9    0.00 
 298    1:00   0.00   26.6    69    0.4   346     1.8   394.9    0.00 
 298    1:10   0.00   25.8    69    0.3   315     1.8   394.5    0.00 
 298    1:20   0.00   26.1    69    0.6    91     1.8   394.9    0.00 
 298    1:30   0.00   26.8    65    0.5   193     1.8   394.5    0.00 
 298    1:40   0.00   26.6    67    0.3   252     1.8   394.9    0.00 
 298    1:50   0.00   25.9    68    0.4   360     1.8   394.9    0.00 
 298    2:00   0.00   26.1    67    0.4   126     2.4   394.5    0.00 
 298    2:10   0.00   25.3    69    0.9   138     2.4   394.5    0.00 

Return to San Antonio, Valles Caldera graphs page.


Western Regional Climate Center,wrcc@dri.edu